sensor_id;sensor_type;location;lat;lon;timestamp;pressure;altitude;pressure_sealevel;temperature;humidity
58471;BME280;44258;51.288;12.068;2023-04-26T00:02:12;100466.91;;;7.49;51.22
58471;BME280;44258;51.288;12.068;2023-04-26T00:04:40;100467.06;;;7.45;51.19
58471;BME280;44258;51.288;12.068;2023-04-26T00:07:07;100474.84;;;7.51;51.03
58471;BME280;44258;51.288;12.068;2023-04-26T00:09:35;100469.50;;;7.51;51.58
58471;BME280;44258;51.288;12.068;2023-04-26T00:12:06;100470.63;;;7.45;51.69
58471;BME280;44258;51.288;12.068;2023-04-26T00:14:32;100474.28;;;7.43;51.34
58471;BME280;44258;51.288;12.068;2023-04-26T00:16:59;100473.56;;;7.39;51.88
58471;BME280;44258;51.288;12.068;2023-04-26T00:19:27;100469.03;;;7.41;51.96
58471;BME280;44258;51.288;12.068;2023-04-26T00:21:55;100471.94;;;7.35;52.32
58471;BME280;44258;51.288;12.068;2023-04-26T00:24:21;100480.44;;;7.45;51.73
58471;BME280;44258;51.288;12.068;2023-04-26T00:26:52;100472.75;;;7.37;52.07
58471;BME280;44258;51.288;12.068;2023-04-26T00:29:19;100475.34;;;7.39;52.08
58471;BME280;44258;51.288;12.068;2023-04-26T00:31:45;100484.06;;;7.44;51.77
58471;BME280;44258;51.288;12.068;2023-04-26T00:34:12;100476.03;;;7.44;52.30
58471;BME280;44258;51.288;12.068;2023-04-26T00:36:38;100478.78;;;7.42;52.35
58471;BME280;44258;51.288;12.068;2023-04-26T00:39:05;100472.25;;;7.49;51.87
58471;BME280;44258;51.288;12.068;2023-04-26T00:41:32;100478.84;;;7.41;51.94
58471;BME280;44258;51.288;12.068;2023-04-26T00:44:00;100484.50;;;7.33;52.58
58471;BME280;44258;51.288;12.068;2023-04-26T00:46:27;100482.13;;;7.03;53.21
58471;BME280;44258;51.288;12.068;2023-04-26T00:48:55;100490.13;;;7.03;53.12
58471;BME280;44258;51.288;12.068;2023-04-26T00:51:22;100486.41;;;7.07;52.94
58471;BME280;44258;51.288;12.068;2023-04-26T00:53:49;100492.44;;;7.12;52.73
58471;BME280;44258;51.288;12.068;2023-04-26T00:56:16;100490.72;;;7.11;52.59
58471;BME280;44258;51.288;12.068;2023-04-26T00:58:42;100496.69;;;7.18;52.43
58471;BME280;44258;51.288;12.068;2023-04-26T01:01:11;100495.50;;;7.25;51.89
58471;BME280;44258;51.288;12.068;2023-04-26T01:03:38;100500.69;;;7.30;51.70
58471;BME280;44258;51.288;12.068;2023-04-26T01:06:05;100491.84;;;7.28;51.24
58471;BME280;44258;51.288;12.068;2023-04-26T01:08:32;100497.25;;;7.26;51.43
58471;BME280;44258;51.288;12.068;2023-04-26T01:10:59;100501.53;;;7.30;51.14
58471;BME280;44258;51.288;12.068;2023-04-26T01:13:26;100503.84;;;7.18;51.47
58471;BME280;44258;51.288;12.068;2023-04-26T01:15:53;100504.47;;;7.24;51.04
58471;BME280;44258;51.288;12.068;2023-04-26T01:18:23;100504.75;;;7.17;51.27
58471;BME280;44258;51.288;12.068;2023-04-26T01:20:50;100511.72;;;7.21;51.40
58471;BME280;44258;51.288;12.068;2023-04-26T01:23:18;100502.97;;;7.17;51.36
58471;BME280;44258;51.288;12.068;2023-04-26T01:25:45;100507.44;;;7.17;51.07
58471;BME280;44258;51.288;12.068;2023-04-26T01:28:11;100508.56;;;7.11;51.09
58471;BME280;44258;51.288;12.068;2023-04-26T01:30:38;100505.00;;;7.10;51.08
58471;BME280;44258;51.288;12.068;2023-04-26T01:33:05;100499.31;;;6.96;51.38
58471;BME280;44258;51.288;12.068;2023-04-26T01:35:32;100511.56;;;7.02;51.27
58471;BME280;44258;51.288;12.068;2023-04-26T01:37:59;100508.47;;;7.12;50.65
58471;BME280;44258;51.288;12.068;2023-04-26T01:40:30;100504.91;;;6.66;51.83
58471;BME280;44258;51.288;12.068;2023-04-26T01:42:56;100507.00;;;6.82;51.32
58471;BME280;44258;51.288;12.068;2023-04-26T01:45:23;100508.13;;;6.76;51.40
58471;BME280;44258;51.288;12.068;2023-04-26T01:47:49;100509.75;;;6.80;51.33
58471;BME280;44258;51.288;12.068;2023-04-26T01:50:16;100504.06;;;6.88;51.25
58471;BME280;44258;51.288;12.068;2023-04-26T01:52:42;100503.34;;;6.84;51.55
58471;BME280;44258;51.288;12.068;2023-04-26T01:55:09;100505.13;;;6.84;51.52
58471;BME280;44258;51.288;12.068;2023-04-26T01:57:37;100505.88;;;6.87;51.52
58471;BME280;44258;51.288;12.068;2023-04-26T02:00:04;100504.53;;;6.76;51.50
58471;BME280;44258;51.288;12.068;2023-04-26T02:02:32;100510.84;;;6.74;51.55
58471;BME280;44258;51.288;12.068;2023-04-26T02:04:59;100515.47;;;6.69;51.36
58471;BME280;44258;51.288;12.068;2023-04-26T02:07:25;100508.13;;;6.76;51.28
58471;BME280;44258;51.288;12.068;2023-04-26T02:09:52;100507.13;;;6.79;51.11
58471;BME280;44258;51.288;12.068;2023-04-26T02:12:18;100507.22;;;6.76;51.43
58471;BME280;44258;51.288;12.068;2023-04-26T02:14:48;100515.09;;;6.55;51.64
58471;BME280;44258;51.288;12.068;2023-04-26T02:17:14;100506.19;;;6.56;51.61
58471;BME280;44258;51.288;12.068;2023-04-26T02:19:44;100506.31;;;6.28;52.59
58471;BME280;44258;51.288;12.068;2023-04-26T02:22:11;100513.72;;;6.20;52.72
58471;BME280;44258;51.288;12.068;2023-04-26T02:24:37;100507.59;;;5.91;53.44
58471;BME280;44258;51.288;12.068;2023-04-26T02:27:04;100515.06;;;5.78;53.93
58471;BME280;44258;51.288;12.068;2023-04-26T02:29:31;100522.75;;;5.89;53.57
58471;BME280;44258;51.288;12.068;2023-04-26T02:31:58;100520.63;;;5.72;54.16
58471;BME280;44258;51.288;12.068;2023-04-26T02:34:25;100507.44;;;5.67;54.23
58471;BME280;44258;51.288;12.068;2023-04-26T02:36:52;100521.16;;;5.83;53.73
58471;BME280;44258;51.288;12.068;2023-04-26T02:39:18;100517.44;;;5.87;53.61
58471;BME280;44258;51.288;12.068;2023-04-26T02:41:45;100513.34;;;5.77;53.80
58471;BME280;44258;51.288;12.068;2023-04-26T02:44:11;100514.00;;;5.84;53.43
58471;BME280;44258;51.288;12.068;2023-04-26T02:46:38;100511.81;;;5.97;52.88
58471;BME280;44258;51.288;12.068;2023-04-26T02:49:08;100506.34;;;6.01;52.91
58471;BME280;44258;51.288;12.068;2023-04-26T02:51:35;100505.31;;;6.05;52.57
58471;BME280;44258;51.288;12.068;2023-04-26T02:54:01;100511.50;;;6.06;52.84
58471;BME280;44258;51.288;12.068;2023-04-26T02:56:28;100508.94;;;6.03;52.60
58471;BME280;44258;51.288;12.068;2023-04-26T02:58:54;100501.06;;;6.00;52.70
58471;BME280;44258;51.288;12.068;2023-04-26T03:01:21;100506.59;;;5.93;53.01
58471;BME280;44258;51.288;12.068;2023-04-26T03:03:48;100518.19;;;5.92;52.84
58471;BME280;44258;51.288;12.068;2023-04-26T03:06:16;100524.72;;;5.82;53.24
58471;BME280;44258;51.288;12.068;2023-04-26T03:08:42;100512.06;;;5.89;53.07
58471;BME280;44258;51.288;12.068;2023-04-26T03:11:09;100513.19;;;5.82;53.09
58471;BME280;44258;51.288;12.068;2023-04-26T03:13:36;100513.03;;;5.86;53.10
58471;BME280;44258;51.288;12.068;2023-04-26T03:16:02;100512.13;;;5.87;52.93
58471;BME280;44258;51.288;12.068;2023-04-26T03:18:29;100507.75;;;5.85;53.10
58471;BME280;44258;51.288;12.068;2023-04-26T03:20:55;100509.66;;;5.81;53.04
58471;BME280;44258;51.288;12.068;2023-04-26T03:23:23;100515.41;;;5.69;53.40
58471;BME280;44258;51.288;12.068;2023-04-26T03:25:50;100516.44;;;5.65;53.65
58471;BME280;44258;51.288;12.068;2023-04-26T03:28:17;100514.63;;;5.65;53.41
58471;BME280;44258;51.288;12.068;2023-04-26T03:30:43;100524.66;;;5.57;53.87
58471;BME280;44258;51.288;12.068;2023-04-26T03:33:10;100520.97;;;5.61;53.63
58471;BME280;44258;51.288;12.068;2023-04-26T03:35:37;100524.63;;;5.59;53.83
58471;BME280;44258;51.288;12.068;2023-04-26T03:38:04;100523.88;;;5.53;53.59
58471;BME280;44258;51.288;12.068;2023-04-26T03:40:32;100526.56;;;5.53;53.74
58471;BME280;44258;51.288;12.068;2023-04-26T03:42:58;100530.13;;;5.54;53.47
58471;BME280;44258;51.288;12.068;2023-04-26T03:45:25;100532.19;;;5.44;53.29
58471;BME280;44258;51.288;12.068;2023-04-26T03:47:52;100529.56;;;5.43;53.83
58471;BME280;44258;51.288;12.068;2023-04-26T03:50:19;100526.03;;;5.42;53.85
58471;BME280;44258;51.288;12.068;2023-04-26T03:52:45;100531.38;;;5.42;53.69
58471;BME280;44258;51.288;12.068;2023-04-26T03:55:12;100533.34;;;5.36;53.74
58471;BME280;44258;51.288;12.068;2023-04-26T03:57:40;100535.38;;;5.27;54.07
58471;BME280;44258;51.288;12.068;2023-04-26T04:00:07;100527.28;;;5.30;53.55
58471;BME280;44258;51.288;12.068;2023-04-26T04:02:37;100523.75;;;5.30;53.55
58471;BME280;44258;51.288;12.068;2023-04-26T04:05:04;100532.81;;;5.24;54.16
58471;BME280;44258;51.288;12.068;2023-04-26T04:07:32;100531.16;;;5.20;54.01
58471;BME280;44258;51.288;12.068;2023-04-26T04:09:59;100538.34;;;5.18;54.60
58471;BME280;44258;51.288;12.068;2023-04-26T04:12:26;100535.75;;;5.15;54.34
58471;BME280;44258;51.288;12.068;2023-04-26T04:14:54;100524.53;;;5.05;54.89
58471;BME280;44258;51.288;12.068;2023-04-26T04:17:24;100529.03;;;5.03;54.98
58471;BME280;44258;51.288;12.068;2023-04-26T04:19:51;100529.66;;;5.11;54.71
58471;BME280;44258;51.288;12.068;2023-04-26T04:22:17;100534.09;;;5.11;54.62
58471;BME280;44258;51.288;12.068;2023-04-26T04:24:44;100540.19;;;5.16;54.31
58471;BME280;44258;51.288;12.068;2023-04-26T04:27:11;100537.38;;;5.21;54.69
58471;BME280;44258;51.288;12.068;2023-04-26T04:29:38;100537.50;;;5.16;54.10
58471;BME280;44258;51.288;12.068;2023-04-26T04:32:07;100545.41;;;5.19;54.71
58471;BME280;44258;51.288;12.068;2023-04-26T04:34:34;100553.41;;;5.19;54.34
58471;BME280;44258;51.288;12.068;2023-04-26T04:37:01;100554.22;;;5.21;54.28
58471;BME280;44258;51.288;12.068;2023-04-26T04:39:28;100557.63;;;5.26;54.40
58471;BME280;44258;51.288;12.068;2023-04-26T04:41:55;100557.31;;;5.37;54.13
58471;BME280;44258;51.288;12.068;2023-04-26T04:44:29;100559.94;;;5.39;54.31
58471;BME280;44258;51.288;12.068;2023-04-26T04:46:55;100566.84;;;5.46;54.01
58471;BME280;44258;51.288;12.068;2023-04-26T04:49:23;100564.91;;;5.49;54.13
58471;BME280;44258;51.288;12.068;2023-04-26T04:51:50;100571.03;;;5.53;54.25
58471;BME280;44258;51.288;12.068;2023-04-26T04:54:17;100571.97;;;5.52;53.98
58471;BME280;44258;51.288;12.068;2023-04-26T04:56:44;100578.38;;;5.46;54.04
58471;BME280;44258;51.288;12.068;2023-04-26T04:59:11;100574.09;;;5.41;54.67
58471;BME280;44258;51.288;12.068;2023-04-26T05:01:37;100575.06;;;5.38;54.82
58471;BME280;44258;51.288;12.068;2023-04-26T05:04:04;100580.16;;;5.46;54.62
58471;BME280;44258;51.288;12.068;2023-04-26T05:06:33;100579.28;;;5.45;55.16
58471;BME280;44258;51.288;12.068;2023-04-26T05:09:01;100579.00;;;5.54;54.83
58471;BME280;44258;51.288;12.068;2023-04-26T05:11:29;100581.56;;;5.58;54.89
58471;BME280;44258;51.288;12.068;2023-04-26T05:13:59;100584.72;;;5.42;55.40
58471;BME280;44258;51.288;12.068;2023-04-26T05:16:25;100583.94;;;5.39;55.36
58471;BME280;44258;51.288;12.068;2023-04-26T05:18:52;100578.31;;;5.48;55.26
58471;BME280;44258;51.288;12.068;2023-04-26T05:21:18;100580.88;;;5.51;55.36
58471;BME280;44258;51.288;12.068;2023-04-26T05:23:46;100577.44;;;5.47;55.43
58471;BME280;44258;51.288;12.068;2023-04-26T05:26:14;100580.06;;;5.49;55.50
58471;BME280;44258;51.288;12.068;2023-04-26T05:28:41;100586.16;;;5.52;55.42
58471;BME280;44258;51.288;12.068;2023-04-26T05:31:08;100592.53;;;5.48;55.83
58471;BME280;44258;51.288;12.068;2023-04-26T05:33:35;100603.53;;;5.66;55.58
58471;BME280;44258;51.288;12.068;2023-04-26T05:36:02;100597.56;;;5.58;56.09
58471;BME280;44258;51.288;12.068;2023-04-26T05:38:29;100609.59;;;5.71;55.56
58471;BME280;44258;51.288;12.068;2023-04-26T05:40:58;100608.00;;;5.65;56.12
58471;BME280;44258;51.288;12.068;2023-04-26T05:43:25;100609.16;;;5.85;55.57
58471;BME280;44258;51.288;12.068;2023-04-26T05:45:52;100604.22;;;6.01;55.12
58471;BME280;44258;51.288;12.068;2023-04-26T05:48:19;100607.31;;;6.15;54.58
58471;BME280;44258;51.288;12.068;2023-04-26T05:50:46;100605.47;;;6.17;54.73
58471;BME280;44258;51.288;12.068;2023-04-26T05:53:13;100615.78;;;6.28;54.93
58471;BME280;44258;51.288;12.068;2023-04-26T05:55:40;100610.31;;;6.31;54.85
58471;BME280;44258;51.288;12.068;2023-04-26T05:58:08;100620.47;;;6.48;54.49
58471;BME280;44258;51.288;12.068;2023-04-26T06:00:36;100616.25;;;6.66;54.21
58471;BME280;44258;51.288;12.068;2023-04-26T06:03:03;100614.03;;;6.79;53.86
58471;BME280;44258;51.288;12.068;2023-04-26T06:05:30;100606.81;;;6.81;53.99
58471;BME280;44258;51.288;12.068;2023-04-26T06:07:57;100610.69;;;6.97;53.19
58471;BME280;44258;51.288;12.068;2023-04-26T06:10:26;100612.50;;;6.97;53.02
58471;BME280;44258;51.288;12.068;2023-04-26T06:12:52;100610.34;;;7.30;52.30
58471;BME280;44258;51.288;12.068;2023-04-26T06:15:20;100607.19;;;7.19;52.66
58471;BME280;44258;51.288;12.068;2023-04-26T06:17:46;100609.91;;;7.64;51.64
58471;BME280;44258;51.288;12.068;2023-04-26T06:20:13;100612.22;;;7.73;50.31
58471;BME280;44258;51.288;12.068;2023-04-26T06:22:40;100611.22;;;7.76;49.84
58471;BME280;44258;51.288;12.068;2023-04-26T06:25:08;100604.78;;;8.04;49.15
58471;BME280;44258;51.288;12.068;2023-04-26T06:27:35;100616.59;;;8.20;49.14
58471;BME280;44258;51.288;12.068;2023-04-26T06:30:04;100618.03;;;8.29;47.88
58471;BME280;44258;51.288;12.068;2023-04-26T06:32:32;100614.13;;;8.16;47.68
58471;BME280;44258;51.288;12.068;2023-04-26T06:34:59;100613.50;;;8.51;47.16
58471;BME280;44258;51.288;12.068;2023-04-26T06:37:25;100617.69;;;8.37;47.53
58471;BME280;44258;51.288;12.068;2023-04-26T06:39:54;100623.59;;;8.45;46.58
58471;BME280;44258;51.288;12.068;2023-04-26T06:42:21;100617.56;;;8.81;46.30
58471;BME280;44258;51.288;12.068;2023-04-26T06:44:47;100629.56;;;9.32;45.67
58471;BME280;44258;51.288;12.068;2023-04-26T06:47:14;100621.69;;;9.29;44.23
58471;BME280;44258;51.288;12.068;2023-04-26T06:49:42;100617.50;;;9.42;44.71
58471;BME280;44258;51.288;12.068;2023-04-26T06:52:10;100623.13;;;9.36;44.15
58471;BME280;44258;51.288;12.068;2023-04-26T06:54:36;100623.53;;;9.47;43.52
58471;BME280;44258;51.288;12.068;2023-04-26T06:57:03;100623.81;;;9.60;44.28
58471;BME280;44258;51.288;12.068;2023-04-26T06:59:30;100628.22;;;9.80;43.49
58471;BME280;44258;51.288;12.068;2023-04-26T07:01:56;100627.88;;;9.69;42.59
58471;BME280;44258;51.288;12.068;2023-04-26T07:04:23;100638.09;;;9.99;42.93
58471;BME280;44258;51.288;12.068;2023-04-26T07:06:51;100626.91;;;10.25;42.91
58471;BME280;44258;51.288;12.068;2023-04-26T07:09:17;100632.16;;;10.28;42.83
58471;BME280;44258;51.288;12.068;2023-04-26T07:11:44;100625.97;;;10.44;42.27
58471;BME280;44258;51.288;12.068;2023-04-26T07:14:11;100633.38;;;10.21;42.11
58471;BME280;44258;51.288;12.068;2023-04-26T07:16:38;100631.38;;;10.07;42.10
58471;BME280;44258;51.288;12.068;2023-04-26T07:19:05;100628.25;;;10.17;41.53
58471;BME280;44258;51.288;12.068;2023-04-26T07:21:31;100628.38;;;10.13;41.84
58471;BME280;44258;51.288;12.068;2023-04-26T07:24:00;100624.28;;;9.87;41.41
58471;BME280;44258;51.288;12.068;2023-04-26T07:26:28;100630.00;;;9.23;43.28
58471;BME280;44258;51.288;12.068;2023-04-26T07:28:55;100629.50;;;9.14;44.06
58471;BME280;44258;51.288;12.068;2023-04-26T07:31:23;100628.06;;;9.83;43.18
58471;BME280;44258;51.288;12.068;2023-04-26T07:33:49;100628.19;;;10.18;41.78
58471;BME280;44258;51.288;12.068;2023-04-26T07:36:16;100622.81;;;9.99;42.04
58471;BME280;44258;51.288;12.068;2023-04-26T07:38:42;100622.63;;;10.04;41.65
58471;BME280;44258;51.288;12.068;2023-04-26T07:41:10;100626.13;;;10.58;40.48
58471;BME280;44258;51.288;12.068;2023-04-26T07:43:38;100624.03;;;10.82;40.04
58471;BME280;44258;51.288;12.068;2023-04-26T07:46:07;100632.47;;;10.40;41.31
58471;BME280;44258;51.288;12.068;2023-04-26T07:48:34;100629.78;;;10.22;41.00
58471;BME280;44258;51.288;12.068;2023-04-26T07:51:06;100632.53;;;9.65;41.59
58471;BME280;44258;51.288;12.068;2023-04-26T07:53:33;100643.25;;;9.84;41.41
58471;BME280;44258;51.288;12.068;2023-04-26T07:55:59;100645.72;;;10.08;40.79
58471;BME280;44258;51.288;12.068;2023-04-26T07:58:29;100637.47;;;10.11;40.46
58471;BME280;44258;51.288;12.068;2023-04-26T08:00:57;100637.88;;;9.46;41.60
58471;BME280;44258;51.288;12.068;2023-04-26T08:03:23;100635.34;;;9.81;40.66
58471;BME280;44258;51.288;12.068;2023-04-26T08:05:51;100636.81;;;10.25;40.78
58471;BME280;44258;51.288;12.068;2023-04-26T08:08:19;100641.19;;;10.45;40.46
58471;BME280;44258;51.288;12.068;2023-04-26T08:10:46;100623.13;;;10.99;39.15
58471;BME280;44258;51.288;12.068;2023-04-26T08:13:16;100636.91;;;10.75;39.45
58471;BME280;44258;51.288;12.068;2023-04-26T08:15:44;100635.41;;;10.35;39.50
58471;BME280;44258;51.288;12.068;2023-04-26T08:18:10;100636.69;;;10.80;38.90
58471;BME280;44258;51.288;12.068;2023-04-26T08:20:37;100625.69;;;11.02;39.18
58471;BME280;44258;51.288;12.068;2023-04-26T08:23:04;100639.00;;;10.88;38.80
58471;BME280;44258;51.288;12.068;2023-04-26T08:25:31;100639.91;;;10.69;39.03
58471;BME280;44258;51.288;12.068;2023-04-26T08:27:59;100629.16;;;10.87;38.41
58471;BME280;44258;51.288;12.068;2023-04-26T08:30:26;100640.41;;;10.06;39.79
58471;BME280;44258;51.288;12.068;2023-04-26T08:32:55;100643.69;;;10.30;39.22
58471;BME280;44258;51.288;12.068;2023-04-26T08:35:21;100645.88;;;9.67;40.33
58471;BME280;44258;51.288;12.068;2023-04-26T08:37:48;100647.09;;;9.98;40.49
58471;BME280;44258;51.288;12.068;2023-04-26T08:40:21;100635.09;;;10.05;40.89
58471;BME280;44258;51.288;12.068;2023-04-26T08:42:51;100634.75;;;9.93;39.05
58471;BME280;44258;51.288;12.068;2023-04-26T08:45:19;100633.75;;;9.77;39.61
58471;BME280;44258;51.288;12.068;2023-04-26T08:47:48;100625.09;;;10.26;39.21
58471;BME280;44258;51.288;12.068;2023-04-26T08:50:18;100628.19;;;10.18;38.70
58471;BME280;44258;51.288;12.068;2023-04-26T08:52:47;100627.47;;;10.14;38.74
58471;BME280;44258;51.288;12.068;2023-04-26T08:55:14;100638.97;;;9.80;39.83
58471;BME280;44258;51.288;12.068;2023-04-26T08:57:42;100643.06;;;9.70;39.39
58471;BME280;44258;51.288;12.068;2023-04-26T09:00:10;100649.56;;;9.83;38.27
58471;BME280;44258;51.288;12.068;2023-04-26T09:02:38;100636.16;;;10.20;39.29
58471;BME280;44258;51.288;12.068;2023-04-26T09:05:08;100636.84;;;10.94;37.14
58471;BME280;44258;51.288;12.068;2023-04-26T09:07:39;100624.03;;;10.82;37.55
58471;BME280;44258;51.288;12.068;2023-04-26T09:10:08;100641.25;;;10.78;37.10
58471;BME280;44258;51.288;12.068;2023-04-26T09:12:34;100641.88;;;9.94;37.65
58471;BME280;44258;51.288;12.068;2023-04-26T09:15:01;100639.63;;;9.85;36.49
58471;BME280;44258;51.288;12.068;2023-04-26T09:17:29;100629.75;;;9.67;36.86
58471;BME280;44258;51.288;12.068;2023-04-26T09:19:58;100635.69;;;10.46;37.27
58471;BME280;44258;51.288;12.068;2023-04-26T09:22:33;100632.63;;;11.06;36.05
58471;BME280;44258;51.288;12.068;2023-04-26T09:25:02;100629.66;;;11.28;35.39
58471;BME280;44258;51.288;12.068;2023-04-26T09:27:34;100629.41;;;10.82;35.38
58471;BME280;44258;51.288;12.068;2023-04-26T09:30:06;100625.78;;;10.83;34.21
58471;BME280;44258;51.288;12.068;2023-04-26T09:32:45;100632.78;;;11.03;35.16
58471;BME280;44258;51.288;12.068;2023-04-26T09:35:38;100629.63;;;11.12;34.62
58471;BME280;44258;51.288;12.068;2023-04-26T09:38:10;100633.81;;;11.18;35.46
58471;BME280;44258;51.288;12.068;2023-04-26T09:40:41;100630.47;;;11.13;35.02
58471;BME280;44258;51.288;12.068;2023-04-26T09:43:09;100630.88;;;11.05;34.85
58471;BME280;44258;51.288;12.068;2023-04-26T09:45:45;100638.00;;;10.54;35.09
58471;BME280;44258;51.288;12.068;2023-04-26T09:48:15;100632.00;;;10.49;35.24
58471;BME280;44258;51.288;12.068;2023-04-26T09:50:42;100635.59;;;10.67;35.66
58471;BME280;44258;51.288;12.068;2023-04-26T09:53:10;100630.41;;;10.62;35.94
58471;BME280;44258;51.288;12.068;2023-04-26T09:55:37;100637.31;;;10.68;35.38
58471;BME280;44258;51.288;12.068;2023-04-26T09:58:09;100640.00;;;10.68;35.84
58471;BME280;44258;51.288;12.068;2023-04-26T10:00:37;100643.94;;;10.78;35.78
58471;BME280;44258;51.288;12.068;2023-04-26T10:03:06;100643.25;;;10.57;35.09
58471;BME280;44258;51.288;12.068;2023-04-26T10:05:33;100639.38;;;10.80;35.14
58471;BME280;44258;51.288;12.068;2023-04-26T10:08:00;100635.25;;;11.08;33.51
58471;BME280;44258;51.288;12.068;2023-04-26T10:10:28;100638.16;;;11.03;34.22
58471;BME280;44258;51.288;12.068;2023-04-26T10:12:56;100637.38;;;11.01;34.38
58471;BME280;44258;51.288;12.068;2023-04-26T10:15:24;100638.34;;;10.83;34.47
58471;BME280;44258;51.288;12.068;2023-04-26T10:17:51;100630.66;;;11.59;34.64
58471;BME280;44258;51.288;12.068;2023-04-26T10:20:19;100627.81;;;12.10;33.82
58471;BME280;44258;51.288;12.068;2023-04-26T10:22:51;100624.06;;;11.65;32.94
58471;BME280;44258;51.288;12.068;2023-04-26T10:25:18;100627.72;;;11.80;32.15
58471;BME280;44258;51.288;12.068;2023-04-26T10:27:47;100633.38;;;11.75;31.41
58471;BME280;44258;51.288;12.068;2023-04-26T10:30:14;100625.44;;;11.56;30.67
58471;BME280;44258;51.288;12.068;2023-04-26T10:36:04;100636.44;;;10.67;33.49
58471;BME280;44258;51.288;12.068;2023-04-26T10:38:32;100635.78;;;11.14;32.98
58471;BME280;44258;51.288;12.068;2023-04-26T10:41:29;100629.56;;;10.97;32.98
58471;BME280;44258;51.288;12.068;2023-04-26T10:43:56;100626.53;;;11.03;33.18
58471;BME280;44258;51.288;12.068;2023-04-26T10:46:35;100634.97;;;11.30;33.03
58471;BME280;44258;51.288;12.068;2023-04-26T10:49:15;100632.22;;;11.14;33.60
58471;BME280;44258;51.288;12.068;2023-04-26T10:52:11;100632.78;;;10.68;33.25
58471;BME280;44258;51.288;12.068;2023-04-26T10:54:53;100629.09;;;10.71;33.35
58471;BME280;44258;51.288;12.068;2023-04-26T10:57:20;100619.03;;;10.92;33.69
58471;BME280;44258;51.288;12.068;2023-04-26T11:03:01;100628.13;;;11.07;32.27
58471;BME280;44258;51.288;12.068;2023-04-26T11:05:36;100622.22;;;10.83;33.07
58471;BME280;44258;51.288;12.068;2023-04-26T11:08:14;100621.63;;;11.11;33.62
58471;BME280;44258;51.288;12.068;2023-04-26T11:10:42;100626.22;;;11.09;32.65
58471;BME280;44258;51.288;12.068;2023-04-26T11:13:08;100619.69;;;11.30;32.38
58471;BME280;44258;51.288;12.068;2023-04-26T11:15:35;100620.56;;;11.47;33.04
58471;BME280;44258;51.288;12.068;2023-04-26T11:18:02;100624.00;;;11.33;32.92
58471;BME280;44258;51.288;12.068;2023-04-26T11:20:29;100623.78;;;11.53;32.86
58471;BME280;44258;51.288;12.068;2023-04-26T11:22:57;100618.66;;;11.49;32.51
58471;BME280;44258;51.288;12.068;2023-04-26T11:25:25;100618.81;;;11.46;32.57
58471;BME280;44258;51.288;12.068;2023-04-26T11:27:58;100615.59;;;11.39;31.29
58471;BME280;44258;51.288;12.068;2023-04-26T11:30:24;100617.25;;;11.42;32.35
58471;BME280;44258;51.288;12.068;2023-04-26T11:32:53;100618.84;;;11.62;32.58
58471;BME280;44258;51.288;12.068;2023-04-26T11:35:20;100613.28;;;11.65;31.99
58471;BME280;44258;51.288;12.068;2023-04-26T11:37:50;100620.41;;;11.66;31.09
58471;BME280;44258;51.288;12.068;2023-04-26T11:40:17;100613.72;;;11.73;31.29
58471;BME280;44258;51.288;12.068;2023-04-26T11:42:45;100615.63;;;11.22;31.45
58471;BME280;44258;51.288;12.068;2023-04-26T11:45:14;100613.19;;;11.50;31.67
58471;BME280;44258;51.288;12.068;2023-04-26T11:47:42;100604.59;;;11.75;31.34
58471;BME280;44258;51.288;12.068;2023-04-26T11:50:10;100610.75;;;11.78;31.63
58471;BME280;44258;51.288;12.068;2023-04-26T11:52:36;100610.41;;;11.52;32.68
58471;BME280;44258;51.288;12.068;2023-04-26T11:55:05;100618.28;;;11.39;32.93
58471;BME280;44258;51.288;12.068;2023-04-26T11:57:33;100623.53;;;11.42;33.38
58471;BME280;44258;51.288;12.068;2023-04-26T12:00:09;100619.22;;;11.22;32.89
58471;BME280;44258;51.288;12.068;2023-04-26T12:02:36;100623.81;;;11.20;32.81
58471;BME280;44258;51.288;12.068;2023-04-26T12:05:04;100611.69;;;11.29;32.25
58471;BME280;44258;51.288;12.068;2023-04-26T12:07:36;100621.63;;;11.44;32.92
58471;BME280;44258;51.288;12.068;2023-04-26T12:10:14;100624.38;;;11.09;32.09
58471;BME280;44258;51.288;12.068;2023-04-26T12:12:46;100627.25;;;11.06;31.99
58471;BME280;44258;51.288;12.068;2023-04-26T12:15:16;100631.34;;;11.47;31.24
58471;BME280;44258;51.288;12.068;2023-04-26T12:17:53;100617.47;;;11.54;31.08
58471;BME280;44258;51.288;12.068;2023-04-26T12:20:26;100615.09;;;11.48;31.09
58471;BME280;44258;51.288;12.068;2023-04-26T12:23:00;100618.66;;;10.82;32.77
58471;BME280;44258;51.288;12.068;2023-04-26T12:25:29;100624.50;;;10.73;33.32
58471;BME280;44258;51.288;12.068;2023-04-26T12:27:56;100624.56;;;10.54;33.94
58471;BME280;44258;51.288;12.068;2023-04-26T12:30:24;100628.63;;;10.80;33.32
58471;BME280;44258;51.288;12.068;2023-04-26T12:32:51;100616.41;;;11.08;33.13
58471;BME280;44258;51.288;12.068;2023-04-26T12:35:18;100618.66;;;11.15;33.00
58471;BME280;44258;51.288;12.068;2023-04-26T12:37:44;100617.44;;;11.70;33.47
58471;BME280;44258;51.288;12.068;2023-04-26T12:40:12;100613.09;;;11.36;33.48
58471;BME280;44258;51.288;12.068;2023-04-26T12:42:40;100614.16;;;11.81;32.53
58471;BME280;44258;51.288;12.068;2023-04-26T12:45:10;100624.25;;;11.93;32.37
58471;BME280;44258;51.288;12.068;2023-04-26T12:47:38;100619.09;;;11.57;32.21
58471;BME280;44258;51.288;12.068;2023-04-26T12:50:05;100623.00;;;11.51;31.92
58471;BME280;44258;51.288;12.068;2023-04-26T12:52:32;100609.28;;;11.56;32.11
58471;BME280;44258;51.288;12.068;2023-04-26T12:54:59;100620.94;;;11.23;32.26
58471;BME280;44258;51.288;12.068;2023-04-26T12:57:25;100615.19;;;11.79;32.05